WATER LEVELS

Guaranteed water level and forecast    Ústí nad Labem-Střekov

Guaranteed water level
135 cm
on 03.06.2020 more information
Forecast
135 cm
on 04.06.2020 07:00
Tendency
steady state
on 04.06.2020 metodika tendence
Forecast
(Source data ČHMÚ a Povodí Labe)

Ústí nad Labem

Date and time (UTC) H (cm) Q (m3/s)
3. 6. 2020 13:00 136 86.8
3. 6. 2020 12:00 136 87
3. 6. 2020 11:00 136 87
3. 6. 2020 10:00 136 87
3. 6. 2020 09:00 136 87
3. 6. 2020 08:00 137 88
3. 6. 2020 07:00 137 88
3. 6. 2020 06:00 137 88
3. 6. 2020 05:00 137 88
3. 6. 2020 04:00 137 88
3. 6. 2020 03:00 137 88
3. 6. 2020 02:00 137 88
3. 6. 2020 01:00 137 88

H - water level, Q - discharge
more information

Mělník

Date and time (UTC) H (cm) Q (m3/s)
3. 6. 2020 13:10 258 -
3. 6. 2020 13:00 259 -
3. 6. 2020 12:00 252 -
3. 6. 2020 11:00 251 -
3. 6. 2020 10:00 251 -
3. 6. 2020 09:00 259 -
3. 6. 2020 08:00 263 -
3. 6. 2020 07:00 255 -
3. 6. 2020 06:00 253 70
3. 6. 2020 05:00 255 -
3. 6. 2020 04:00 257 -
3. 6. 2020 03:00 259 -
3. 6. 2020 02:00 259 -
3. 6. 2020 01:00 259 -

H - water level, Q - discharge
more information

Kostelec nad Labem

Date and time (UTC) H (cm) Q (m3/s)
3. 6. 2020 13:10 404 -
3. 6. 2020 13:00 400 -
3. 6. 2020 12:00 400 12
3. 6. 2020 11:00 404 14
3. 6. 2020 10:00 401 18
3. 6. 2020 09:00 401 16
3. 6. 2020 08:00 399 18
3. 6. 2020 07:00 404 27
3. 6. 2020 06:00 403 36
3. 6. 2020 05:00 401 24
3. 6. 2020 04:00 400 14
3. 6. 2020 03:00 401 16
3. 6. 2020 02:00 401 19
3. 6. 2020 01:00 400 19

H - water level, Q - discharge
more information

Přelouč

Date and time (UTC) H (cm) Q (m3/s)
3. 6. 2020 13:10 67 32.8
3. 6. 2020 13:00 66 32
3. 6. 2020 12:00 46 20
3. 6. 2020 11:00 34 14
3. 6. 2020 10:00 37 15
3. 6. 2020 09:00 55 25
3. 6. 2020 08:00 55 25
3. 6. 2020 07:00 53 24
3. 6. 2020 06:00 43 18
3. 6. 2020 05:00 42 18
3. 6. 2020 04:00 54 24
3. 6. 2020 03:00 59 27
3. 6. 2020 02:00 49 21
3. 6. 2020 01:00 41 17

H - water level, Q - discharge
more information

Praha-Chuchle

Date and time (UTC) H (cm) Q (m3/s)
3. 6. 2020 13:10 41 37.5
3. 6. 2020 13:00 40 34
3. 6. 2020 12:00 40 34
3. 6. 2020 11:00 40 34
3. 6. 2020 10:00 37 24
3. 6. 2020 09:00 39 31
3. 6. 2020 08:00 41 38
3. 6. 2020 07:00 41 38
3. 6. 2020 06:00 41 38
3. 6. 2020 05:00 41 38
3. 6. 2020 04:00 42 41
3. 6. 2020 03:00 42 41
3. 6. 2020 02:00 42 41
3. 6. 2020 01:00 42 41

H - water level, Q - discharge
more information

České Budějovice

Date and time (UTC) H (cm) Q (m3/s)
3. 6. 2020 13:10 103 12
3. 6. 2020 13:00 103 12
3. 6. 2020 12:00 95 12
3. 6. 2020 11:00 97 12
3. 6. 2020 10:00 99 11
3. 6. 2020 09:00 101 11
3. 6. 2020 08:00 99 11
3. 6. 2020 07:00 101 11
3. 6. 2020 06:00 99 10
3. 6. 2020 05:00 101 11
3. 6. 2020 04:00 99 11
3. 6. 2020 03:00 100 11
3. 6. 2020 02:00 100 11
3. 6. 2020 01:00 99 10

H - water level, Q - discharge
more information
Source data
Labe Basin Vltava Basin Povodí Moravy ČHMÚ